Flight Track Log - Related Links

Times and Time Zones

All times are in EDT time to prevent confusion due to time zone crossing. See the SET212 flight status page for this flight to view local times or setup timezone preferences in your user account.

Time Position Orientation Groundspeed Altitude Reporting Facility
EDT Latitude Longitude Course Direction KTS MPH feet Rate Location/Type
Tue 07:29:00 PM 33.7285 131.0771 75° East  Level Estimated
Tue 07:30:00 PM 33.7564 131.2027 75° East  Level Estimated
Tue 07:31:00 PM 33.7843 131.3284 75° East  Level Estimated
Tue 07:32:00 PM 33.8120 131.4542 75° East  Level Estimated
Tue 07:33:00 PM 33.8396 131.5800 75° East  Level Estimated
Tue 07:34:00 PM 33.8671 131.7060 75° East  Level Estimated
Tue 07:35:00 PM 33.8945 131.8320 75° East  Level Estimated
Tue 07:36:00 PM 33.9217 131.9581 75° East  Level Estimated
Tue 07:37:00 PM 33.9488 132.0843 75° East  Level Estimated
Tue 07:38:00 PM 33.9757 132.2106 76° East  Level Estimated
Tue 07:39:00 PM 34.0025 132.3369 76° East  Level Estimated
Tue 07:40:00 PM 34.0293 132.4634 76° East  Level Estimated
Tue 07:41:00 PM 34.0558 132.5899 76° East  Level Estimated
Tue 07:42:00 PM 34.0823 132.7165 76° East  Level Estimated
Tue 07:43:00 PM 34.1086 132.8432 76° East  Level Estimated
Tue 07:44:00 PM 34.1348 132.9699 76° East  Level Estimated
Tue 07:45:00 PM 34.1608 133.0967 76° East  Level Estimated
Tue 07:46:00 PM 34.1867 133.2236 76° East  Level Estimated
Tue 07:47:00 PM 34.2125 133.3506 76° East  Level Estimated
Tue 07:48:00 PM 34.2382 133.4777 76° East  Level Estimated
Tue 07:49:00 PM 34.2637 133.6048 76° East  Level Estimated
Tue 07:50:00 PM 34.2891 133.7320 76° East  Level Estimated
Tue 07:51:00 PM 34.3144 133.8593 76° East  Level Estimated
Tue 07:52:00 PM 34.3395 133.9867 77° East  Level Estimated
Tue 07:53:00 PM 34.3645 134.1141 77° East  Level Estimated
Tue 07:54:00 PM 34.3894 134.2416 77° East  Level Estimated
Tue 07:55:00 PM 34.4141 134.3692 77° East  Level Estimated
Tue 07:56:00 PM 34.4387 134.4969 77° East  Level Estimated
Tue 07:57:00 PM 34.4632 134.6246 77° East  Level Estimated
Tue 07:58:00 PM 34.4875 134.7524 77° East  Level Estimated
Tue 07:59:00 PM 34.5117 134.8803 77° East  Level Estimated
Tue 08:00:00 PM 34.5358 135.0083 77° East  Level Estimated
Tue 08:01:00 PM 34.5597 135.1363 77° East  Level Estimated
Tue 08:02:00 PM 34.5835 135.2645 77° East  Level Estimated
Tue 08:03:00 PM 34.6072 135.3926 77° East  Level Estimated
Tue 08:04:00 PM 34.6308 135.5209 77° East  Level Estimated
Tue 08:05:00 PM 34.6542 135.6492 77° East  Level Estimated
Tue 08:06:00 PM 34.6774 135.7776 78° East  Level Estimated
Tue 08:07:00 PM 34.7006 135.9061 78° East  Level Estimated
Tue 08:08:00 PM 34.7236 136.0347 78° East  Level Estimated
Tue 08:09:00 PM 34.7464 136.1633 78° East  Level Estimated
Tue 08:10:00 PM 34.7691 136.2920 78° East  Level Estimated
Tue 08:11:00 PM 34.7917 136.4207 78° East  Level Estimated
Tue 08:12:00 PM 34.8142 136.5496 78° East  Level Estimated
Tue 08:13:00 PM 34.8365 136.6785 78° East  Level Estimated
Tue 08:14:00 PM 34.8583 136.8053 78° East  Level Estimated
Tue 08:15:00 PM 34.8583 136.8053 331° Northwest  Level Estimated
Tue 08:16:00 PM 34.8583 136.8053 331° Northwest  Level Estimated
Tue 08:17:00 PM 34.8583 136.8053 331° Northwest  Level Estimated
Tue 08:18:00 PM 34.8583 136.8053 331° Northwest  Level Estimated
Tue 08:19:00 PM 34.8583 136.8053 331° Northwest  Level Estimated
Tue 08:20:00 PM 34.8583 136.8053 331° Northwest  Level Estimated
Tue 08:21:00 PM 34.8583 136.8053 331° Northwest  Level Estimated
Tue 08:22:00 PM 34.8583 136.8053 331° Northwest  Level Estimated
Tue 08:23:00 PM 34.8583 136.8053 331° Northwest  Level Estimated
Tue 08:24:00 PM 34.8583 136.8053 331° Northwest  Level Estimated
Tue 08:25:00 PM 34.8583 136.8053 331° Northwest  Level Estimated
Tue 08:26:00 PM 34.8583 136.8053 331° Northwest  Level Estimated
Tue 08:27:00 PM 34.8583 136.8053 331° Northwest  Level Estimated
Tue 08:28:00 PM 34.8583 136.8053 331° Northwest  Level Estimated
Tue 08:29:00 PM 34.8583 136.8053 331° Northwest  Level Estimated
Tue 08:30:00 PM 34.8583 136.8053 331° Northwest  Level Estimated

Login

Don't have an account? Register now (free) for customized features, flight alerts, and more!